createdAt,value
2022-10-15T00:01:25.578Z,2.10
2022-10-15T00:03:53.228Z,2.50
2022-10-15T00:06:21.073Z,3.03
2022-10-15T00:08:48.806Z,2.53
2022-10-15T00:11:22.563Z,1.95
2022-10-15T00:13:51.809Z,3.22
2022-10-15T00:16:24.802Z,2.45
2022-10-15T00:18:55.412Z,2.58
2022-10-15T00:21:22.833Z,2.58
2022-10-15T00:23:50.283Z,2.75
2022-10-15T00:26:27.387Z,2.70
2022-10-15T00:28:58.997Z,2.67
2022-10-15T00:31:28.669Z,2.08
2022-10-15T00:33:59.085Z,2.88
2022-10-15T00:36:30.172Z,3.38
2022-10-15T00:38:57.813Z,2.33
2022-10-15T00:41:30.947Z,2.28
2022-10-15T00:44:25.981Z,2.95
2022-10-15T00:47:36.540Z,1.98
2022-10-15T00:50:03.549Z,3.13
2022-10-15T00:52:48.710Z,2.33
2022-10-15T00:55:34.543Z,4.20
2022-10-15T00:58:15.983Z,2.38
2022-10-15T01:00:43.371Z,2.85
2022-10-15T01:03:12.114Z,1.98
2022-10-15T01:05:40.841Z,2.75
2022-10-15T01:08:11.297Z,2.35
2022-10-15T01:11:06.802Z,1.98
2022-10-15T01:13:59.580Z,1.58
2022-10-15T01:16:43.760Z,2.35
2022-10-15T01:19:48.441Z,2.35
2022-10-15T01:23:01.683Z,2.53
2022-10-15T01:26:09.008Z,2.25
2022-10-15T01:28:48.252Z,3.20
2022-10-15T01:31:27.683Z,2.67
2022-10-15T01:34:50.263Z,2.35
2022-10-15T01:37:52.351Z,3.25
2022-10-15T01:40:42.150Z,2.65
2022-10-15T01:46:27.419Z,2.30
2022-10-15T01:49:04.558Z,2.97
2022-10-15T01:51:36.135Z,2.00
2022-10-15T01:54:07.952Z,2.80
2022-10-15T01:56:36.936Z,2.75
2022-10-15T01:59:06.469Z,3.50
2022-10-15T02:01:34.245Z,2.45
2022-10-15T02:04:01.425Z,2.53
2022-10-15T02:06:41.420Z,2.55
2022-10-15T02:09:28.994Z,2.72
2022-10-15T02:12:32.934Z,3.72
2022-10-15T02:15:27.695Z,2.42
2022-10-15T02:18:15.632Z,2.10
2022-10-15T02:20:55.301Z,3.67
2022-10-15T02:23:44.915Z,3.08
2022-10-15T02:26:13.718Z,4.72
2022-10-15T02:28:45.646Z,2.67
2022-10-15T02:31:15.597Z,2.33
2022-10-15T02:33:44.782Z,2.58
2022-10-15T02:36:15.533Z,2.30
2022-10-15T02:38:44.361Z,1.98
2022-10-15T02:41:12.813Z,2.65
2022-10-15T02:43:41.248Z,3.35
2022-10-15T02:46:11.681Z,2.78
2022-10-15T02:48:38.745Z,4.07
2022-10-15T02:51:06.040Z,3.97
2022-10-15T02:53:33.383Z,3.63
2022-10-15T02:56:00.649Z,3.83
2022-10-15T02:58:28.667Z,4.22
2022-10-15T03:00:56.385Z,2.58
2022-10-15T03:03:23.568Z,2.22
2022-10-15T03:05:50.801Z,2.65
2022-10-15T03:08:17.970Z,3.33
2022-10-15T03:10:45.842Z,2.28
2022-10-15T03:13:13.804Z,3.50
2022-10-15T03:15:48.120Z,3.20
2022-10-15T03:18:16.370Z,4.03
2022-10-15T03:20:43.669Z,3.67
2022-10-15T03:23:11.316Z,4.35
2022-10-15T03:25:38.959Z,4.30
2022-10-15T03:28:05.976Z,4.25
2022-10-15T03:30:39.897Z,4.90
2022-10-15T03:33:07.659Z,4.45
2022-10-15T03:35:35.907Z,4.75
2022-10-15T03:38:04.797Z,4.00
2022-10-15T03:40:32.554Z,5.63
2022-10-15T03:43:11.369Z,6.40
2022-10-15T03:45:38.635Z,5.60
2022-10-15T03:48:18.991Z,5.72
2022-10-15T03:50:46.974Z,5.57
2022-10-15T03:53:15.099Z,5.35
2022-10-15T03:55:42.523Z,5.53
2022-10-15T03:58:10.022Z,5.22
2022-10-15T04:00:44.455Z,6.20
2022-10-15T04:05:39.797Z,6.25
2022-10-15T04:08:09.817Z,6.03
2022-10-15T04:10:40.478Z,6.78
2022-10-15T04:13:08.041Z,5.40
2022-10-15T04:15:39.115Z,5.13
2022-10-15T04:18:09.701Z,4.65
2022-10-15T04:20:37.844Z,5.43
2022-10-15T04:23:17.665Z,4.32
2022-10-15T04:26:05.805Z,5.70
2022-10-15T04:28:33.401Z,4.90
2022-10-15T04:31:01.980Z,5.45
2022-10-15T04:33:30.164Z,5.28
2022-10-15T04:36:09.408Z,6.30
2022-10-15T04:38:53.125Z,5.20
2022-10-15T04:41:33.116Z,6.93
2022-10-15T04:44:04.811Z,6.10
2022-10-15T04:46:32.897Z,4.93
2022-10-15T04:49:05.893Z,5.70
2022-10-15T04:51:33.014Z,5.70
2022-10-15T04:54:14.025Z,6.72
2022-10-15T04:56:56.121Z,4.30
2022-10-15T04:59:26.503Z,5.20
2022-10-15T05:02:20.972Z,6.80
2022-10-15T05:04:56.675Z,7.40
2022-10-15T05:07:24.104Z,8.20
2022-10-15T05:12:20.901Z,7.35
2022-10-15T05:14:48.627Z,7.78
2022-10-15T05:17:22.609Z,6.38
2022-10-15T05:19:50.063Z,6.47
2022-10-15T05:22:21.993Z,7.45
2022-10-15T05:24:56.790Z,8.68
2022-10-15T05:27:35.947Z,8.20
2022-10-15T05:30:06.153Z,6.38
2022-10-15T05:32:54.445Z,6.35
2022-10-15T05:37:55.488Z,7.05
2022-10-15T05:40:23.930Z,6.95
2022-10-15T05:43:06.580Z,6.10
2022-10-15T05:45:33.860Z,6.47
2022-10-15T05:48:06.881Z,5.22
2022-10-15T05:50:35.401Z,5.72
2022-10-15T05:53:04.921Z,5.40
2022-10-15T05:55:40.120Z,7.07
2022-10-15T05:58:07.390Z,5.43
2022-10-15T06:00:35.444Z,5.45
2022-10-15T06:03:02.936Z,6.03
2022-10-15T06:05:31.098Z,5.30
2022-10-15T06:07:58.177Z,5.38
2022-10-15T06:10:27.699Z,4.40
2022-10-15T06:12:55.103Z,5.10
2022-10-15T06:15:22.329Z,4.25
2022-10-15T06:17:54.634Z,4.50
2022-10-15T06:20:21.774Z,4.43
2022-10-15T06:22:48.856Z,3.80
2022-10-15T06:25:16.352Z,5.43
2022-10-15T06:27:43.949Z,4.50
2022-10-15T06:30:11.597Z,4.05
2022-10-15T06:32:39.057Z,4.15
2022-10-15T06:35:07.531Z,3.58
2022-10-15T06:37:35.776Z,4.53
2022-10-15T06:40:03.705Z,4.82
2022-10-15T06:42:31.316Z,4.60
2022-10-15T06:44:58.389Z,4.78
2022-10-15T06:47:26.057Z,3.97
2022-10-15T06:49:53.452Z,4.70
2022-10-15T06:52:21.798Z,5.03
2022-10-15T06:54:50.763Z,4.90
2022-10-15T06:57:24.840Z,4.82
2022-10-15T06:59:52.498Z,4.32
2022-10-15T07:02:20.155Z,7.28
2022-10-15T07:04:47.645Z,5.75
2022-10-15T07:07:18.539Z,7.40
2022-10-15T07:09:46.847Z,5.75
2022-10-15T07:12:15.493Z,5.40
2022-10-15T07:14:42.651Z,4.70
2022-10-15T07:17:09.820Z,4.40
2022-10-15T07:19:36.947Z,4.53
2022-10-15T07:22:04.053Z,4.85
2022-10-15T07:24:31.132Z,4.63
2022-10-15T07:26:58.273Z,5.63
2022-10-15T07:29:25.377Z,4.85
2022-10-15T07:31:52.482Z,5.93
2022-10-15T07:34:19.999Z,6.70
2022-10-15T07:36:47.045Z,4.43
2022-10-15T07:39:14.359Z,5.60
2022-10-15T07:41:41.481Z,5.22
2022-10-15T07:44:08.611Z,5.40
2022-10-15T07:46:35.768Z,4.45
2022-10-15T07:49:03.373Z,5.80
2022-10-15T07:51:30.468Z,6.30
2022-10-15T07:53:57.663Z,5.60
2022-10-15T07:56:24.895Z,6.10
2022-10-15T07:58:52.127Z,4.90
2022-10-15T08:01:21.475Z,5.53
2022-10-15T08:06:16.200Z,3.97
2022-10-15T08:08:43.368Z,5.63
2022-10-15T08:11:15.807Z,5.55
2022-10-15T08:13:44.097Z,6.47
2022-10-15T08:16:14.669Z,6.28
2022-10-15T08:18:42.662Z,5.95
2022-10-15T08:21:11.307Z,5.13
2022-10-15T08:23:38.685Z,5.90
2022-10-15T08:26:06.313Z,6.85
2022-10-15T08:28:35.558Z,5.82
2022-10-15T08:31:05.757Z,6.07
2022-10-15T08:33:35.316Z,4.45
2022-10-15T08:36:05.750Z,5.38
2022-10-15T08:38:34.057Z,5.35
2022-10-15T08:41:02.384Z,4.43
2022-10-15T08:43:42.714Z,5.20
2022-10-15T08:46:30.232Z,4.15
2022-10-15T08:49:00.370Z,3.40
2022-10-15T08:51:47.653Z,3.00
2022-10-15T08:54:17.514Z,2.83
2022-10-15T08:56:50.286Z,3.58
2022-10-15T08:59:54.704Z,4.38
2022-10-15T09:02:30.271Z,5.00
2022-10-15T09:05:35.054Z,4.90
2022-10-15T09:08:24.477Z,4.63
2022-10-15T09:11:16.321Z,4.63
2022-10-15T09:13:45.941Z,4.00
2022-10-15T09:16:36.541Z,4.38
2022-10-15T09:19:14.640Z,3.10
2022-10-15T09:21:42.782Z,4.07
2022-10-15T09:24:12.974Z,3.35
2022-10-15T09:27:07.700Z,3.80
2022-10-15T09:29:44.742Z,4.75
2022-10-15T09:32:49.506Z,4.65
2022-10-15T09:35:23.726Z,4.60
2022-10-15T09:38:16.924Z,4.75
2022-10-15T09:40:58.423Z,4.93
2022-10-15T09:43:34.763Z,3.95
2022-10-15T09:46:05.303Z,4.65
2022-10-15T09:48:48.403Z,5.13
2022-10-15T09:51:49.066Z,5.85
2022-10-15T09:54:47.790Z,5.60
2022-10-15T09:57:18.808Z,5.18
2022-10-15T10:00:00.450Z,5.13
2022-10-15T10:02:29.369Z,5.35
2022-10-15T10:07:37.294Z,6.88
2022-10-15T10:10:29.194Z,5.70
2022-10-15T10:12:58.089Z,5.55
2022-10-15T10:15:41.514Z,6.22
2022-10-15T10:18:20.042Z,5.18
2022-10-15T10:21:03.223Z,4.47
2022-10-15T10:23:38.246Z,6.05
2022-10-15T10:26:10.673Z,6.45
2022-10-15T10:29:04.997Z,6.25
2022-10-15T10:31:44.391Z,6.55
2022-10-15T10:34:28.664Z,5.63
2022-10-15T10:36:56.518Z,5.00
2022-10-15T10:39:29.278Z,4.95
2022-10-15T10:42:02.202Z,4.47
2022-10-15T10:44:29.357Z,5.85
2022-10-15T10:47:11.265Z,6.05
2022-10-15T10:49:42.539Z,7.00
2022-10-15T10:52:34.959Z,6.85
2022-10-15T10:55:23.823Z,4.78
2022-10-15T10:57:55.610Z,6.38
2022-10-15T11:00:35.338Z,5.68
2022-10-15T11:03:02.705Z,5.80
2022-10-15T11:05:36.461Z,5.93
2022-10-15T11:08:51.918Z,6.85
2022-10-15T11:11:31.256Z,6.40
2022-10-15T11:14:16.846Z,4.93
2022-10-15T11:17:01.007Z,5.28
2022-10-15T11:23:31.568Z,6.13
2022-10-15T11:26:52.032Z,5.90
2022-10-15T11:30:03.245Z,7.45
2022-10-15T11:33:09.963Z,4.88
2022-10-15T11:36:17.100Z,4.78
2022-10-15T11:38:55.934Z,5.85
2022-10-15T11:41:44.150Z,4.40
2022-10-15T11:44:44.706Z,5.43
2022-10-15T11:47:39.080Z,5.63
2022-10-15T11:50:41.232Z,4.97
2022-10-15T11:53:25.996Z,5.07
2022-10-15T11:56:20.342Z,3.88
2022-10-15T11:59:08.978Z,6.13
2022-10-15T12:01:46.234Z,5.18
2022-10-15T12:04:22.197Z,4.72
2022-10-15T12:06:54.663Z,4.13
2022-10-15T12:09:46.108Z,4.25
2022-10-15T12:12:33.488Z,3.92
2022-10-15T12:15:39.946Z,4.78
2022-10-15T12:18:36.378Z,4.65
2022-10-15T12:21:03.902Z,4.43
2022-10-15T12:23:37.180Z,4.43
2022-10-15T12:26:23.025Z,4.03
2022-10-15T12:28:58.423Z,4.25
2022-10-15T12:31:52.202Z,3.90
2022-10-15T12:34:38.749Z,5.13
2022-10-15T12:37:17.697Z,4.95
2022-10-15T12:39:53.526Z,4.28
2022-10-15T12:42:28.074Z,4.22
2022-10-15T12:44:57.260Z,4.63
2022-10-15T12:50:30.534Z,3.95
2022-10-15T12:53:01.655Z,4.38
2022-10-15T12:55:38.023Z,4.38
2022-10-15T12:58:25.874Z,5.05
2022-10-15T13:00:53.122Z,4.85
2022-10-15T13:03:34.917Z,4.85
2022-10-15T13:06:20.194Z,5.38
2022-10-15T13:09:26.511Z,3.97
2022-10-15T13:11:56.684Z,4.10
2022-10-15T13:14:55.876Z,4.45
2022-10-15T13:17:23.274Z,4.05
2022-10-15T13:20:27.524Z,3.60
2022-10-15T13:23:18.865Z,4.38
2022-10-15T13:26:26.698Z,4.65
2022-10-15T13:28:57.317Z,4.15
2022-10-15T13:31:35.490Z,4.50
2022-10-15T13:34:27.969Z,5.95
2022-10-15T13:36:58.914Z,3.67
2022-10-15T13:39:38.687Z,4.75
2022-10-15T13:42:19.002Z,4.20
2022-10-15T13:45:18.364Z,5.20
2022-10-15T13:47:52.262Z,4.30
2022-10-15T13:50:24.131Z,3.58
2022-10-15T13:53:19.317Z,3.58
2022-10-15T13:55:49.716Z,3.22
2022-10-15T13:58:35.812Z,3.63
2022-10-15T14:01:24.133Z,3.42
2022-10-15T14:04:02.065Z,3.95
2022-10-15T14:06:35.115Z,3.95
2022-10-15T14:09:17.673Z,3.80
2022-10-15T14:11:45.219Z,4.13
2022-10-15T14:14:35.778Z,4.85
2022-10-15T14:17:08.314Z,4.07
2022-10-15T14:19:38.397Z,5.03
2022-10-15T14:22:06.185Z,4.88
2022-10-15T14:24:38.594Z,4.18
2022-10-15T14:27:27.590Z,4.05
2022-10-15T14:30:00.731Z,4.38
2022-10-15T14:32:48.803Z,4.18
2022-10-15T14:35:32.503Z,3.95
2022-10-15T14:38:16.012Z,5.00
2022-10-15T14:41:06.432Z,5.40
2022-10-15T14:43:37.190Z,5.57
2022-10-15T14:46:15.915Z,5.55
2022-10-15T14:48:43.868Z,4.68
2022-10-15T14:51:20.325Z,7.72
2022-10-15T14:53:47.890Z,6.75
2022-10-15T14:56:23.424Z,7.07
2022-10-15T14:58:56.135Z,7.13
2022-10-15T15:01:24.432Z,6.63
2022-10-15T15:03:56.373Z,6.03
2022-10-15T15:06:23.549Z,6.65
2022-10-15T15:08:50.781Z,7.88
2022-10-15T15:11:23.117Z,6.78
2022-10-15T15:13:51.721Z,5.82
2022-10-15T15:16:19.299Z,5.35
2022-10-15T15:18:48.017Z,5.40
2022-10-15T15:21:22.757Z,6.20
2022-10-15T15:23:50.417Z,6.70
2022-10-15T15:26:17.505Z,6.22
2022-10-15T15:28:44.564Z,6.78
2022-10-15T15:31:17.311Z,6.93
2022-10-15T15:33:44.859Z,7.93
2022-10-15T15:36:20.905Z,8.55
2022-10-15T15:38:51.050Z,9.85
2022-10-15T15:41:23.308Z,8.85
2022-10-15T15:43:51.452Z,8.77
2022-10-15T15:46:18.713Z,7.30
2022-10-15T15:48:45.847Z,8.00
2022-10-15T15:51:31.580Z,6.88
2022-10-15T15:53:58.938Z,6.90
2022-10-15T15:56:26.096Z,7.53
2022-10-15T15:58:53.213Z,9.77
2022-10-15T16:01:21.264Z,10.75
2022-10-15T16:03:48.479Z,9.15
2022-10-15T16:06:15.652Z,10.77
2022-10-15T16:08:42.769Z,8.82
2022-10-15T16:11:09.926Z,6.50
2022-10-15T16:13:37.637Z,6.90
2022-10-15T16:16:05.327Z,5.00
2022-10-15T16:18:32.447Z,5.40
2022-10-15T16:20:59.591Z,5.00
2022-10-15T16:23:26.713Z,5.63
2022-10-15T16:25:55.938Z,6.18
2022-10-15T16:28:23.942Z,5.03
2022-10-15T16:30:51.164Z,4.53
2022-10-15T16:33:18.366Z,6.72
2022-10-15T16:35:52.719Z,6.95
2022-10-15T16:38:19.821Z,5.65
2022-10-15T16:40:46.992Z,6.15
2022-10-15T16:43:14.134Z,6.05
2022-10-15T16:45:41.309Z,6.40
2022-10-15T16:48:08.566Z,6.20
2022-10-15T16:50:35.662Z,6.65
2022-10-15T16:53:03.203Z,5.13
2022-10-15T16:55:31.691Z,6.07
2022-10-15T16:57:58.750Z,4.93
2022-10-15T17:00:25.972Z,6.10
2022-10-15T17:02:54.454Z,5.40
2022-10-15T17:05:21.560Z,6.63
2022-10-15T17:07:48.666Z,5.60
2022-10-15T17:10:16.010Z,7.53
2022-10-15T17:12:43.318Z,6.07
2022-10-15T17:15:10.517Z,7.05
2022-10-15T17:17:37.737Z,7.97
2022-10-15T17:20:05.809Z,6.72
2022-10-15T17:22:34.273Z,7.22
2022-10-15T17:25:01.357Z,7.63
2022-10-15T17:27:28.637Z,7.65
2022-10-15T17:29:55.695Z,8.48
2022-10-15T17:32:22.984Z,8.18
2022-10-15T17:34:50.300Z,8.27
2022-10-15T17:37:17.542Z,9.55
2022-10-15T17:39:45.065Z,7.18
2022-10-15T17:42:12.816Z,8.63
2022-10-15T17:44:39.961Z,6.72
2022-10-15T17:47:07.044Z,8.15
2022-10-15T17:49:34.174Z,6.38
2022-10-15T17:52:01.244Z,6.82
2022-10-15T17:54:28.372Z,8.75
2022-10-15T17:56:55.440Z,6.80
2022-10-15T17:59:22.579Z,7.18
2022-10-15T18:01:58.882Z,8.88
2022-10-15T18:04:28.945Z,8.38
2022-10-15T18:09:27.526Z,11.50
2022-10-15T18:12:01.201Z,10.45
2022-10-15T18:14:31.131Z,10.02
2022-10-15T18:16:58.618Z,8.52
2022-10-15T18:19:25.933Z,8.68
2022-10-15T18:21:53.158Z,8.55
2022-10-15T18:24:22.706Z,8.50
2022-10-15T18:26:50.971Z,8.50
2022-10-15T18:29:18.711Z,8.02
2022-10-15T18:31:46.839Z,8.32
2022-10-15T18:34:14.305Z,8.38
2022-10-15T18:36:42.814Z,9.15
2022-10-15T18:39:10.883Z,8.52
2022-10-15T18:41:39.595Z,10.20
2022-10-15T18:44:15.231Z,11.32
2022-10-15T18:46:44.254Z,10.68
2022-10-15T18:49:14.000Z,10.43
2022-10-15T18:51:41.580Z,12.52
2022-10-15T18:54:10.115Z,10.68
2022-10-15T18:56:37.435Z,9.38
2022-10-15T18:59:04.846Z,10.77
2022-10-15T19:01:38.168Z,9.95
2022-10-15T19:04:11.755Z,9.70
2022-10-15T19:06:42.501Z,10.20
2022-10-15T19:09:20.453Z,9.82
2022-10-15T19:11:50.707Z,10.73
2022-10-15T19:14:20.289Z,12.93
2022-10-15T19:16:48.522Z,10.93
2022-10-15T19:19:20.025Z,9.55
2022-10-15T19:21:49.677Z,12.43
2022-10-15T19:24:20.884Z,11.07
2022-10-15T19:26:50.203Z,11.52
2022-10-15T19:31:49.414Z,11.55
2022-10-15T19:34:16.567Z,9.75
2022-10-15T19:36:47.317Z,8.77
2022-10-15T19:39:21.592Z,8.93
2022-10-15T19:41:50.059Z,10.00
2022-10-15T19:44:24.136Z,9.63
2022-10-15T19:46:51.933Z,9.90
2022-10-15T19:49:19.306Z,11.20
2022-10-15T19:51:48.735Z,10.15
2022-10-15T19:54:17.149Z,12.27
2022-10-15T19:56:44.722Z,11.10
2022-10-15T19:59:12.355Z,11.82
2022-10-15T20:01:39.623Z,10.82
2022-10-15T20:04:07.488Z,10.98
2022-10-15T20:06:37.766Z,11.80
2022-10-15T20:09:05.998Z,10.98
2022-10-15T20:11:33.486Z,11.45
2022-10-15T20:14:01.701Z,10.90
2022-10-15T20:16:32.712Z,11.35
2022-10-15T20:19:02.743Z,11.07
2022-10-15T20:21:30.925Z,10.50
2022-10-15T20:23:58.710Z,11.68
2022-10-15T20:26:26.105Z,11.80
2022-10-15T20:28:53.317Z,11.32
2022-10-15T20:31:21.069Z,11.82
2022-10-15T20:33:49.153Z,11.30
2022-10-15T20:36:22.680Z,11.13
2022-10-15T20:38:51.598Z,11.52
2022-10-15T20:41:19.311Z,10.70
2022-10-15T20:43:53.278Z,12.25
2022-10-15T20:46:34.738Z,12.50
2022-10-15T20:51:42.328Z,11.90
2022-10-15T20:54:12.140Z,11.80
2022-10-15T20:56:40.051Z,11.43
2022-10-15T20:59:07.432Z,12.00
2022-10-15T21:01:35.193Z,11.55
2022-10-15T21:04:03.392Z,11.18
2022-10-15T21:06:31.083Z,12.40
2022-10-15T21:08:58.245Z,11.85
2022-10-15T21:11:25.417Z,13.13
2022-10-15T21:13:52.710Z,10.50
2022-10-15T21:16:23.283Z,11.27
2022-10-15T21:18:53.397Z,10.43
2022-10-15T21:21:20.530Z,11.77
2022-10-15T21:23:47.622Z,11.30
2022-10-15T21:26:16.908Z,11.68
2022-10-15T21:31:16.741Z,10.10
2022-10-15T21:33:44.310Z,14.40
2022-10-15T21:36:25.722Z,12.50
2022-10-15T21:39:06.123Z,13.82
2022-10-15T21:41:37.303Z,14.25
2022-10-15T21:44:07.050Z,13.05
2022-10-15T21:46:34.972Z,12.45
2022-10-15T21:49:03.393Z,11.90
2022-10-15T21:51:33.150Z,12.73
2022-10-15T21:54:02.117Z,11.43
2022-10-15T21:56:29.612Z,11.40
2022-10-15T21:58:58.462Z,11.38
2022-10-15T22:01:35.016Z,12.10
2022-10-15T22:04:09.497Z,11.18
2022-10-15T22:06:41.710Z,12.43
2022-10-15T22:09:10.507Z,11.40
2022-10-15T22:11:41.648Z,9.63
2022-10-15T22:14:12.493Z,13.15
2022-10-15T22:16:41.055Z,11.55
2022-10-15T22:19:12.804Z,9.63
2022-10-15T22:21:40.004Z,11.52
2022-10-15T22:24:16.857Z,12.15
2022-10-15T22:26:48.869Z,11.63
2022-10-15T22:29:20.616Z,10.73
2022-10-15T22:31:49.155Z,15.77
2022-10-15T22:34:17.433Z,13.03
2022-10-15T22:36:44.654Z,14.55
2022-10-15T22:39:17.762Z,16.35
2022-10-15T22:41:46.926Z,17.10
2022-10-15T22:44:20.213Z,17.65
2022-10-15T22:46:48.816Z,16.42
2022-10-15T22:49:19.293Z,14.15
2022-10-15T22:51:48.227Z,15.18
2022-10-15T22:54:18.088Z,13.70
2022-10-15T22:56:46.582Z,11.13
2022-10-15T22:59:14.310Z,12.17
2022-10-15T23:01:41.911Z,11.32
2022-10-15T23:04:13.181Z,12.40
2022-10-15T23:06:40.703Z,10.93
2022-10-15T23:09:10.238Z,13.10
2022-10-15T23:14:12.740Z,11.20
2022-10-15T23:16:43.795Z,12.35
2022-10-15T23:19:21.118Z,12.85
2022-10-15T23:21:55.939Z,11.65
2022-10-15T23:24:25.693Z,11.30
2022-10-15T23:26:53.174Z,10.07
2022-10-15T23:29:23.569Z,11.77
2022-10-15T23:31:51.925Z,13.45
2022-10-15T23:34:25.581Z,15.15
2022-10-15T23:36:53.270Z,12.23
2022-10-15T23:39:24.697Z,11.75
2022-10-15T23:41:52.535Z,11.75
2022-10-15T23:44:19.781Z,12.00
2022-10-15T23:46:47.032Z,13.20
2022-10-15T23:49:14.155Z,12.30
2022-10-15T23:51:41.416Z,11.93
2022-10-15T23:54:14.769Z,12.25
2022-10-15T23:56:42.135Z,11.10
2022-10-15T23:59:09.600Z,11.30
